sensor_id;sensor_type;location;lat;lon;timestamp;P1;durP1;ratioP1;P2;durP2;ratioP2
21837;SDS011;11081;45.946;6.140;2023-02-01T00:00:12;17.77;;;9.83;;
21837;SDS011;11081;45.946;6.140;2023-02-01T00:02:40;20.00;;;10.17;;
21837;SDS011;11081;45.946;6.140;2023-02-01T00:05:08;22.73;;;9.30;;
21837;SDS011;11081;45.946;6.140;2023-02-01T00:07:39;19.63;;;10.00;;
21837;SDS011;11081;45.946;6.140;2023-02-01T00:10:07;19.30;;;10.20;;
21837;SDS011;11081;45.946;6.140;2023-02-01T00:12:36;18.13;;;10.37;;
21837;SDS011;11081;45.946;6.140;2023-02-01T00:15:04;17.43;;;9.73;;
21837;SDS011;11081;45.946;6.140;2023-02-01T00:17:33;19.13;;;9.60;;
21837;SDS011;11081;45.946;6.140;2023-02-01T00:20:01;17.40;;;10.20;;
21837;SDS011;11081;45.946;6.140;2023-02-01T00:22:30;15.90;;;9.47;;
21837;SDS011;11081;45.946;6.140;2023-02-01T00:24:59;16.47;;;9.73;;
21837;SDS011;11081;45.946;6.140;2023-02-01T00:27:27;17.83;;;8.90;;
21837;SDS011;11081;45.946;6.140;2023-02-01T00:29:55;20.60;;;10.10;;
21837;SDS011;11081;45.946;6.140;2023-02-01T00:32:23;18.10;;;9.33;;
21837;SDS011;11081;45.946;6.140;2023-02-01T00:34:51;16.50;;;9.73;;
21837;SDS011;11081;45.946;6.140;2023-02-01T00:37:19;19.33;;;9.83;;
21837;SDS011;11081;45.946;6.140;2023-02-01T00:39:47;18.97;;;9.43;;
21837;SDS011;11081;45.946;6.140;2023-02-01T00:42:18;12.93;;;8.00;;
21837;SDS011;11081;45.946;6.140;2023-02-01T00:44:46;17.97;;;8.77;;
21837;SDS011;11081;45.946;6.140;2023-02-01T00:47:14;16.90;;;8.60;;
21837;SDS011;11081;45.946;6.140;2023-02-01T00:49:41;16.93;;;7.67;;
21837;SDS011;11081;45.946;6.140;2023-02-01T00:52:10;16.90;;;8.47;;
21837;SDS011;11081;45.946;6.140;2023-02-01T00:54:38;13.37;;;7.97;;
21837;SDS011;11081;45.946;6.140;2023-02-01T00:57:06;16.97;;;8.87;;
21837;SDS011;11081;45.946;6.140;2023-02-01T00:59:35;16.53;;;8.03;;
21837;SDS011;11081;45.946;6.140;2023-02-01T01:02:03;12.83;;;7.23;;
21837;SDS011;11081;45.946;6.140;2023-02-01T01:04:31;14.07;;;8.73;;
21837;SDS011;11081;45.946;6.140;2023-02-01T01:06:59;15.43;;;8.20;;
21837;SDS011;11081;45.946;6.140;2023-02-01T01:09:27;15.33;;;8.60;;
21837;SDS011;11081;45.946;6.140;2023-02-01T01:11:55;16.03;;;8.53;;
21837;SDS011;11081;45.946;6.140;2023-02-01T01:14:23;14.57;;;8.47;;
21837;SDS011;11081;45.946;6.140;2023-02-01T01:16:52;13.43;;;7.47;;
21837;SDS011;11081;45.946;6.140;2023-02-01T01:19:20;11.70;;;6.73;;
21837;SDS011;11081;45.946;6.140;2023-02-01T01:21:49;11.67;;;6.67;;
21837;SDS011;11081;45.946;6.140;2023-02-01T01:24:17;10.03;;;6.40;;
21837;SDS011;11081;45.946;6.140;2023-02-01T01:26:45;9.73;;;5.93;;
21837;SDS011;11081;45.946;6.140;2023-02-01T01:29:13;9.30;;;5.57;;
21837;SDS011;11081;45.946;6.140;2023-02-01T01:31:41;11.27;;;5.47;;
21837;SDS011;11081;45.946;6.140;2023-02-01T01:34:10;8.83;;;5.33;;
21837;SDS011;11081;45.946;6.140;2023-02-01T01:36:38;11.53;;;6.23;;
21837;SDS011;11081;45.946;6.140;2023-02-01T01:39:06;11.80;;;6.17;;
21837;SDS011;11081;45.946;6.140;2023-02-01T01:41:34;10.20;;;6.13;;
21837;SDS011;11081;45.946;6.140;2023-02-01T01:47:26;9.90;;;5.63;;
21837;SDS011;11081;45.946;6.140;2023-02-01T01:50:03;10.30;;;5.87;;
21837;SDS011;11081;45.946;6.140;2023-02-01T01:52:34;15.27;;;6.67;;
21837;SDS011;11081;45.946;6.140;2023-02-01T01:55:04;15.10;;;6.23;;
21837;SDS011;11081;45.946;6.140;2023-02-01T01:57:34;10.63;;;6.07;;
21837;SDS011;11081;45.946;6.140;2023-02-01T02:00:07;9.30;;;5.27;;
21837;SDS011;11081;45.946;6.140;2023-02-01T02:02:44;10.37;;;5.60;;
21837;SDS011;11081;45.946;6.140;2023-02-01T02:05:16;14.87;;;6.97;;
21837;SDS011;11081;45.946;6.140;2023-02-01T02:07:46;14.33;;;6.90;;
21837;SDS011;11081;45.946;6.140;2023-02-01T02:10:17;9.57;;;4.57;;
21837;SDS011;11081;45.946;6.140;2023-02-01T02:12:46;7.63;;;5.10;;
21837;SDS011;11081;45.946;6.140;2023-02-01T02:15:16;8.40;;;4.43;;
21837;SDS011;11081;45.946;6.140;2023-02-01T02:17:46;8.10;;;4.93;;
21837;SDS011;11081;45.946;6.140;2023-02-01T02:20:25;11.37;;;5.20;;
21837;SDS011;11081;45.946;6.140;2023-02-01T02:23:28;10.93;;;5.53;;
21837;SDS011;11081;45.946;6.140;2023-02-01T02:26:26;10.63;;;5.50;;
21837;SDS011;11081;45.946;6.140;2023-02-01T02:32:53;12.67;;;7.33;;
21837;SDS011;11081;45.946;6.140;2023-02-01T02:35:43;13.60;;;7.00;;
21837;SDS011;11081;45.946;6.140;2023-02-01T02:38:21;17.57;;;8.90;;
21837;SDS011;11081;45.946;6.140;2023-02-01T02:40:59;15.20;;;9.10;;
21837;SDS011;11081;45.946;6.140;2023-02-01T02:43:35;16.97;;;8.97;;
21837;SDS011;11081;45.946;6.140;2023-02-01T02:46:35;15.10;;;9.87;;
21837;SDS011;11081;45.946;6.140;2023-02-01T02:49:26;17.97;;;9.57;;
21837;SDS011;11081;45.946;6.140;2023-02-01T02:51:58;17.03;;;9.73;;
21837;SDS011;11081;45.946;6.140;2023-02-01T02:54:50;21.70;;;9.70;;
21837;SDS011;11081;45.946;6.140;2023-02-01T02:57:23;17.07;;;9.80;;
21837;SDS011;11081;45.946;6.140;2023-02-01T03:00:12;18.80;;;10.17;;
21837;SDS011;11081;45.946;6.140;2023-02-01T03:03:01;18.37;;;9.57;;
21837;SDS011;11081;45.946;6.140;2023-02-01T03:05:48;17.83;;;9.47;;
21837;SDS011;11081;45.946;6.140;2023-02-01T03:08:19;18.23;;;8.67;;
21837;SDS011;11081;45.946;6.140;2023-02-01T03:10:51;19.07;;;8.93;;
21837;SDS011;11081;45.946;6.140;2023-02-01T03:13:26;19.57;;;9.10;;
21837;SDS011;11081;45.946;6.140;2023-02-01T03:16:01;15.90;;;9.47;;
21837;SDS011;11081;45.946;6.140;2023-02-01T03:18:36;16.73;;;9.27;;
21837;SDS011;11081;45.946;6.140;2023-02-01T03:21:12;14.73;;;9.20;;
21837;SDS011;11081;45.946;6.140;2023-02-01T03:23:45;15.13;;;8.93;;
21837;SDS011;11081;45.946;6.140;2023-02-01T03:26:16;17.50;;;9.20;;
21837;SDS011;11081;45.946;6.140;2023-02-01T03:28:49;14.47;;;8.57;;
21837;SDS011;11081;45.946;6.140;2023-02-01T03:31:23;18.27;;;8.50;;
21837;SDS011;11081;45.946;6.140;2023-02-01T03:33:51;17.83;;;9.20;;
21837;SDS011;11081;45.946;6.140;2023-02-01T03:36:23;16.23;;;8.70;;
21837;SDS011;11081;45.946;6.140;2023-02-01T03:38:55;15.63;;;9.37;;
21837;SDS011;11081;45.946;6.140;2023-02-01T03:41:32;15.07;;;9.03;;
21837;SDS011;11081;45.946;6.140;2023-02-01T03:44:13;15.37;;;9.43;;
21837;SDS011;11081;45.946;6.140;2023-02-01T03:46:47;16.17;;;9.40;;
21837;SDS011;11081;45.946;6.140;2023-02-01T03:49:21;15.40;;;8.43;;
21837;SDS011;11081;45.946;6.140;2023-02-01T03:51:55;14.03;;;8.63;;
21837;SDS011;11081;45.946;6.140;2023-02-01T03:54:26;17.37;;;8.83;;
21837;SDS011;11081;45.946;6.140;2023-02-01T03:56:56;15.30;;;9.20;;
21837;SDS011;11081;45.946;6.140;2023-02-01T03:59:29;15.37;;;8.33;;
21837;SDS011;11081;45.946;6.140;2023-02-01T04:01:57;15.17;;;9.03;;
21837;SDS011;11081;45.946;6.140;2023-02-01T04:04:25;17.80;;;8.43;;
21837;SDS011;11081;45.946;6.140;2023-02-01T04:06:56;19.03;;;8.73;;
21837;SDS011;11081;45.946;6.140;2023-02-01T04:09:24;14.00;;;7.93;;
21837;SDS011;11081;45.946;6.140;2023-02-01T04:11:52;13.50;;;7.60;;
21837;SDS011;11081;45.946;6.140;2023-02-01T04:14:20;19.97;;;9.00;;
21837;SDS011;11081;45.946;6.140;2023-02-01T04:16:48;15.43;;;8.83;;
21837;SDS011;11081;45.946;6.140;2023-02-01T04:19:17;15.30;;;8.47;;
21837;SDS011;11081;45.946;6.140;2023-02-01T04:21:45;15.17;;;8.50;;
21837;SDS011;11081;45.946;6.140;2023-02-01T04:24:14;15.73;;;8.23;;
21837;SDS011;11081;45.946;6.140;2023-02-01T04:26:42;13.53;;;7.60;;
21837;SDS011;11081;45.946;6.140;2023-02-01T04:29:10;13.77;;;8.13;;
21837;SDS011;11081;45.946;6.140;2023-02-01T04:31:38;17.43;;;9.17;;
21837;SDS011;11081;45.946;6.140;2023-02-01T04:34:07;18.30;;;8.20;;
21837;SDS011;11081;45.946;6.140;2023-02-01T04:36:35;14.60;;;8.13;;
21837;SDS011;11081;45.946;6.140;2023-02-01T04:39:03;15.93;;;8.33;;
21837;SDS011;11081;45.946;6.140;2023-02-01T04:41:33;14.40;;;8.33;;
21837;SDS011;11081;45.946;6.140;2023-02-01T04:44:01;14.80;;;8.10;;
21837;SDS011;11081;45.946;6.140;2023-02-01T04:46:29;14.10;;;8.10;;
21837;SDS011;11081;45.946;6.140;2023-02-01T04:48:57;14.40;;;7.40;;
21837;SDS011;11081;45.946;6.140;2023-02-01T04:51:25;16.43;;;8.30;;
21837;SDS011;11081;45.946;6.140;2023-02-01T04:53:53;15.80;;;8.37;;
21837;SDS011;11081;45.946;6.140;2023-02-01T04:56:22;15.90;;;7.70;;
21837;SDS011;11081;45.946;6.140;2023-02-01T04:58:51;16.23;;;7.77;;
21837;SDS011;11081;45.946;6.140;2023-02-01T05:01:19;14.07;;;7.13;;
21837;SDS011;11081;45.946;6.140;2023-02-01T05:03:47;13.37;;;7.53;;
21837;SDS011;11081;45.946;6.140;2023-02-01T05:06:15;11.27;;;7.10;;
21837;SDS011;11081;45.946;6.140;2023-02-01T05:08:44;13.47;;;6.93;;
21837;SDS011;11081;45.946;6.140;2023-02-01T05:11:12;15.83;;;7.70;;
21837;SDS011;11081;45.946;6.140;2023-02-01T05:13:55;13.97;;;7.60;;
21837;SDS011;11081;45.946;6.140;2023-02-01T05:16:23;15.87;;;8.03;;
21837;SDS011;11081;45.946;6.140;2023-02-01T05:18:51;12.23;;;6.50;;
21837;SDS011;11081;45.946;6.140;2023-02-01T05:21:19;12.50;;;6.40;;
21837;SDS011;11081;45.946;6.140;2023-02-01T05:23:47;14.87;;;7.40;;
21837;SDS011;11081;45.946;6.140;2023-02-01T05:26:33;14.93;;;7.37;;
21837;SDS011;11081;45.946;6.140;2023-02-01T05:29:03;14.53;;;7.17;;
21837;SDS011;11081;45.946;6.140;2023-02-01T05:31:31;14.40;;;7.20;;
21837;SDS011;11081;45.946;6.140;2023-02-01T05:33:59;14.40;;;6.80;;
21837;SDS011;11081;45.946;6.140;2023-02-01T05:36:27;13.03;;;7.40;;
21837;SDS011;11081;45.946;6.140;2023-02-01T05:38:55;13.70;;;7.23;;
21837;SDS011;11081;45.946;6.140;2023-02-01T05:41:23;13.47;;;6.70;;
21837;SDS011;11081;45.946;6.140;2023-02-01T05:43:52;12.87;;;7.20;;
21837;SDS011;11081;45.946;6.140;2023-02-01T05:46:21;12.57;;;6.97;;
21837;SDS011;11081;45.946;6.140;2023-02-01T05:48:49;13.03;;;7.63;;
21837;SDS011;11081;45.946;6.140;2023-02-01T05:51:17;12.13;;;6.90;;
21837;SDS011;11081;45.946;6.140;2023-02-01T05:53:45;11.10;;;6.50;;
21837;SDS011;11081;45.946;6.140;2023-02-01T05:56:13;13.67;;;6.43;;
21837;SDS011;11081;45.946;6.140;2023-02-01T05:58:41;12.67;;;6.70;;
21837;SDS011;11081;45.946;6.140;2023-02-01T06:01:09;14.47;;;6.67;;
21837;SDS011;11081;45.946;6.140;2023-02-01T06:03:39;12.87;;;6.53;;
21837;SDS011;11081;45.946;6.140;2023-02-01T06:06:07;12.50;;;7.07;;
21837;SDS011;11081;45.946;6.140;2023-02-01T06:08:35;12.10;;;6.80;;
21837;SDS011;11081;45.946;6.140;2023-02-01T06:11:03;11.13;;;6.73;;
21837;SDS011;11081;45.946;6.140;2023-02-01T06:13:32;11.57;;;6.20;;
21837;SDS011;11081;45.946;6.140;2023-02-01T06:16:01;13.20;;;7.20;;
21837;SDS011;11081;45.946;6.140;2023-02-01T06:18:29;14.13;;;6.77;;
21837;SDS011;11081;45.946;6.140;2023-02-01T06:20:59;13.30;;;6.93;;
21837;SDS011;11081;45.946;6.140;2023-02-01T06:23:28;10.53;;;6.40;;
21837;SDS011;11081;45.946;6.140;2023-02-01T06:25:59;13.13;;;6.90;;
21837;SDS011;11081;45.946;6.140;2023-02-01T06:28:29;13.17;;;7.30;;
21837;SDS011;11081;45.946;6.140;2023-02-01T06:30:58;11.50;;;6.53;;
21837;SDS011;11081;45.946;6.140;2023-02-01T06:33:33;13.70;;;7.00;;
21837;SDS011;11081;45.946;6.140;2023-02-01T06:36:03;13.93;;;6.80;;
21837;SDS011;11081;45.946;6.140;2023-02-01T06:38:33;12.63;;;6.50;;
21837;SDS011;11081;45.946;6.140;2023-02-01T06:41:02;13.00;;;6.87;;
21837;SDS011;11081;45.946;6.140;2023-02-01T06:43:30;12.30;;;6.93;;
21837;SDS011;11081;45.946;6.140;2023-02-01T06:45:59;10.97;;;6.00;;
21837;SDS011;11081;45.946;6.140;2023-02-01T06:48:28;11.33;;;6.80;;
21837;SDS011;11081;45.946;6.140;2023-02-01T06:50:56;13.93;;;7.20;;
21837;SDS011;11081;45.946;6.140;2023-02-01T06:53:26;12.77;;;6.20;;
21837;SDS011;11081;45.946;6.140;2023-02-01T06:55:54;14.20;;;6.50;;
21837;SDS011;11081;45.946;6.140;2023-02-01T06:58:23;12.43;;;6.33;;
21837;SDS011;11081;45.946;6.140;2023-02-01T07:00:55;8.43;;;5.37;;
21837;SDS011;11081;45.946;6.140;2023-02-01T07:03:23;9.53;;;6.27;;
21837;SDS011;11081;45.946;6.140;2023-02-01T07:05:54;11.87;;;6.43;;
21837;SDS011;11081;45.946;6.140;2023-02-01T07:08:26;11.60;;;6.50;;
21837;SDS011;11081;45.946;6.140;2023-02-01T07:10:54;9.83;;;5.77;;
21837;SDS011;11081;45.946;6.140;2023-02-01T07:13:22;15.87;;;7.03;;
21837;SDS011;11081;45.946;6.140;2023-02-01T07:15:50;28.60;;;11.87;;
21837;SDS011;11081;45.946;6.140;2023-02-01T07:18:18;55.00;;;19.10;;
21837;SDS011;11081;45.946;6.140;2023-02-01T07:20:49;49.90;;;18.93;;
21837;SDS011;11081;45.946;6.140;2023-02-01T07:23:17;53.20;;;19.00;;
21837;SDS011;11081;45.946;6.140;2023-02-01T07:25:48;52.70;;;18.57;;
21837;SDS011;11081;45.946;6.140;2023-02-01T07:28:16;70.87;;;25.43;;
21837;SDS011;11081;45.946;6.140;2023-02-01T07:30:44;71.27;;;25.27;;
21837;SDS011;11081;45.946;6.140;2023-02-01T07:33:18;69.10;;;23.77;;
21837;SDS011;11081;45.946;6.140;2023-02-01T07:35:47;72.57;;;25.97;;
21837;SDS011;11081;45.946;6.140;2023-02-01T07:38:16;58.90;;;22.23;;
21837;SDS011;11081;45.946;6.140;2023-02-01T07:40:45;45.13;;;15.50;;
21837;SDS011;11081;45.946;6.140;2023-02-01T07:43:15;21.47;;;10.37;;
21837;SDS011;11081;45.946;6.140;2023-02-01T07:45:49;23.40;;;10.73;;
21837;SDS011;11081;45.946;6.140;2023-02-01T07:48:18;19.73;;;9.10;;
21837;SDS011;11081;45.946;6.140;2023-02-01T07:50:46;19.23;;;9.13;;
21837;SDS011;11081;45.946;6.140;2023-02-01T07:53:14;23.57;;;10.33;;
21837;SDS011;11081;45.946;6.140;2023-02-01T07:55:42;24.27;;;10.87;;
21837;SDS011;11081;45.946;6.140;2023-02-01T07:58:12;17.80;;;9.50;;
21837;SDS011;11081;45.946;6.140;2023-02-01T08:00:40;14.20;;;8.33;;
21837;SDS011;11081;45.946;6.140;2023-02-01T08:03:25;16.03;;;9.27;;
21837;SDS011;11081;45.946;6.140;2023-02-01T08:05:53;48.87;;;25.40;;
21837;SDS011;11081;45.946;6.140;2023-02-01T08:08:22;55.53;;;27.97;;
21837;SDS011;11081;45.946;6.140;2023-02-01T08:10:50;56.00;;;27.63;;
21837;SDS011;11081;45.946;6.140;2023-02-01T08:13:22;49.57;;;23.67;;
21837;SDS011;11081;45.946;6.140;2023-02-01T08:15:50;40.47;;;18.93;;
21837;SDS011;11081;45.946;6.140;2023-02-01T08:18:18;35.17;;;16.00;;
21837;SDS011;11081;45.946;6.140;2023-02-01T08:20:47;31.47;;;13.77;;
21837;SDS011;11081;45.946;6.140;2023-02-01T08:23:15;27.43;;;12.17;;
21837;SDS011;11081;45.946;6.140;2023-02-01T08:25:43;22.93;;;11.00;;
21837;SDS011;11081;45.946;6.140;2023-02-01T08:28:11;20.90;;;9.47;;
21837;SDS011;11081;45.946;6.140;2023-02-01T08:30:42;18.30;;;9.63;;
21837;SDS011;11081;45.946;6.140;2023-02-01T08:33:10;16.37;;;8.33;;
21837;SDS011;11081;45.946;6.140;2023-02-01T08:35:38;17.30;;;9.53;;
21837;SDS011;11081;45.946;6.140;2023-02-01T08:38:09;16.07;;;8.77;;
21837;SDS011;11081;45.946;6.140;2023-02-01T08:40:37;18.53;;;8.30;;
21837;SDS011;11081;45.946;6.140;2023-02-01T08:43:07;16.30;;;8.73;;
21837;SDS011;11081;45.946;6.140;2023-02-01T08:45:35;21.93;;;9.53;;
21837;SDS011;11081;45.946;6.140;2023-02-01T08:48:05;18.90;;;9.77;;
21837;SDS011;11081;45.946;6.140;2023-02-01T08:50:33;11.97;;;6.57;;
21837;SDS011;11081;45.946;6.140;2023-02-01T08:53:01;17.63;;;6.63;;
21837;SDS011;11081;45.946;6.140;2023-02-01T08:55:29;14.07;;;6.83;;
21837;SDS011;11081;45.946;6.140;2023-02-01T08:57:57;14.03;;;6.10;;
21837;SDS011;11081;45.946;6.140;2023-02-01T09:00:25;11.23;;;6.20;;
21837;SDS011;11081;45.946;6.140;2023-02-01T09:02:55;9.03;;;5.27;;
21837;SDS011;11081;45.946;6.140;2023-02-01T09:05:24;7.77;;;5.10;;
21837;SDS011;11081;45.946;6.140;2023-02-01T09:08:06;10.07;;;5.77;;
21837;SDS011;11081;45.946;6.140;2023-02-01T09:10:34;12.40;;;5.27;;
21837;SDS011;11081;45.946;6.140;2023-02-01T09:13:04;10.73;;;5.53;;
21837;SDS011;11081;45.946;6.140;2023-02-01T09:15:32;11.53;;;5.90;;
21837;SDS011;11081;45.946;6.140;2023-02-01T09:18:00;10.03;;;5.53;;
21837;SDS011;11081;45.946;6.140;2023-02-01T09:20:30;9.10;;;5.60;;
21837;SDS011;11081;45.946;6.140;2023-02-01T09:22:58;11.37;;;5.97;;
21837;SDS011;11081;45.946;6.140;2023-02-01T09:25:26;12.13;;;5.90;;
21837;SDS011;11081;45.946;6.140;2023-02-01T09:27:54;8.00;;;4.97;;
21837;SDS011;11081;45.946;6.140;2023-02-01T09:30:22;9.90;;;5.67;;
21837;SDS011;11081;45.946;6.140;2023-02-01T09:32:51;8.10;;;4.87;;
21837;SDS011;11081;45.946;6.140;2023-02-01T09:35:19;12.27;;;5.50;;
21837;SDS011;11081;45.946;6.140;2023-02-01T09:37:48;10.67;;;5.40;;
21837;SDS011;11081;45.946;6.140;2023-02-01T09:40:16;10.27;;;5.07;;
21837;SDS011;11081;45.946;6.140;2023-02-01T09:42:58;9.77;;;5.40;;
21837;SDS011;11081;45.946;6.140;2023-02-01T09:45:38;11.80;;;5.50;;
21837;SDS011;11081;45.946;6.140;2023-02-01T09:48:17;8.03;;;5.13;;
21837;SDS011;11081;45.946;6.140;2023-02-01T09:50:49;9.80;;;5.33;;
21837;SDS011;11081;45.946;6.140;2023-02-01T09:53:23;10.50;;;5.43;;
21837;SDS011;11081;45.946;6.140;2023-02-01T09:55:55;9.73;;;5.50;;
21837;SDS011;11081;45.946;6.140;2023-02-01T09:58:30;8.53;;;4.37;;
21837;SDS011;11081;45.946;6.140;2023-02-01T10:01:03;10.03;;;4.53;;
21837;SDS011;11081;45.946;6.140;2023-02-01T10:03:39;10.63;;;4.70;;
21837;SDS011;11081;45.946;6.140;2023-02-01T10:06:12;8.73;;;4.37;;
21837;SDS011;11081;45.946;6.140;2023-02-01T10:09:00;6.97;;;4.07;;
21837;SDS011;11081;45.946;6.140;2023-02-01T10:11:40;8.17;;;3.83;;
21837;SDS011;11081;45.946;6.140;2023-02-01T10:14:20;8.37;;;4.00;;
21837;SDS011;11081;45.946;6.140;2023-02-01T10:17:11;7.40;;;3.10;;
21837;SDS011;11081;45.946;6.140;2023-02-01T10:19:49;7.63;;;3.87;;
21837;SDS011;11081;45.946;6.140;2023-02-01T10:22:29;8.83;;;4.47;;
21837;SDS011;11081;45.946;6.140;2023-02-01T10:25:30;8.90;;;4.60;;
21837;SDS011;11081;45.946;6.140;2023-02-01T10:28:04;8.67;;;3.80;;
21837;SDS011;11081;45.946;6.140;2023-02-01T10:30:34;8.23;;;3.20;;
21837;SDS011;11081;45.946;6.140;2023-02-01T10:33:12;9.40;;;4.10;;
21837;SDS011;11081;45.946;6.140;2023-02-01T10:35:44;9.37;;;3.87;;
21837;SDS011;11081;45.946;6.140;2023-02-01T10:38:17;8.93;;;3.50;;
21837;SDS011;11081;45.946;6.140;2023-02-01T10:40:57;7.03;;;3.50;;
21837;SDS011;11081;45.946;6.140;2023-02-01T10:43:29;8.93;;;3.77;;
21837;SDS011;11081;45.946;6.140;2023-02-01T10:46:00;4.87;;;2.90;;
21837;SDS011;11081;45.946;6.140;2023-02-01T10:48:28;7.73;;;3.80;;
21837;SDS011;11081;45.946;6.140;2023-02-01T10:50:57;5.53;;;3.67;;
21837;SDS011;11081;45.946;6.140;2023-02-01T10:53:29;7.20;;;4.20;;
21837;SDS011;11081;45.946;6.140;2023-02-01T10:56:06;7.13;;;3.97;;
21837;SDS011;11081;45.946;6.140;2023-02-01T10:58:36;13.83;;;4.53;;
21837;SDS011;11081;45.946;6.140;2023-02-01T11:01:15;10.70;;;4.33;;
21837;SDS011;11081;45.946;6.140;2023-02-01T11:03:51;12.63;;;4.57;;
21837;SDS011;11081;45.946;6.140;2023-02-01T11:06:27;7.90;;;4.03;;
21837;SDS011;11081;45.946;6.140;2023-02-01T11:08:58;10.67;;;4.73;;
21837;SDS011;11081;45.946;6.140;2023-02-01T11:11:30;10.40;;;4.30;;
21837;SDS011;11081;45.946;6.140;2023-02-01T11:13:58;10.27;;;5.53;;
21837;SDS011;11081;45.946;6.140;2023-02-01T11:16:29;13.20;;;5.27;;
21837;SDS011;11081;45.946;6.140;2023-02-01T11:19:01;10.17;;;5.10;;
21837;SDS011;11081;45.946;6.140;2023-02-01T11:21:29;10.23;;;5.40;;
21837;SDS011;11081;45.946;6.140;2023-02-01T11:24:00;9.70;;;4.80;;
21837;SDS011;11081;45.946;6.140;2023-02-01T11:26:30;8.77;;;5.07;;
21837;SDS011;11081;45.946;6.140;2023-02-01T11:29:00;11.87;;;5.53;;
21837;SDS011;11081;45.946;6.140;2023-02-01T11:31:30;11.00;;;5.00;;
21837;SDS011;11081;45.946;6.140;2023-02-01T11:34:04;12.67;;;5.40;;
21837;SDS011;11081;45.946;6.140;2023-02-01T11:36:35;13.67;;;5.50;;
21837;SDS011;11081;45.946;6.140;2023-02-01T11:39:09;9.93;;;6.00;;
21837;SDS011;11081;45.946;6.140;2023-02-01T11:41:59;15.47;;;5.57;;
21837;SDS011;11081;45.946;6.140;2023-02-01T11:44:31;9.17;;;5.10;;
21837;SDS011;11081;45.946;6.140;2023-02-01T11:49:49;12.27;;;5.07;;
21837;SDS011;11081;45.946;6.140;2023-02-01T11:52:24;10.97;;;5.40;;
21837;SDS011;11081;45.946;6.140;2023-02-01T11:55:08;15.20;;;6.40;;
21837;SDS011;11081;45.946;6.140;2023-02-01T11:57:51;10.43;;;5.90;;
21837;SDS011;11081;45.946;6.140;2023-02-01T12:00:40;10.60;;;4.90;;
21837;SDS011;11081;45.946;6.140;2023-02-01T12:06:24;9.53;;;5.20;;
21837;SDS011;11081;45.946;6.140;2023-02-01T12:09:11;9.93;;;4.80;;
21837;SDS011;11081;45.946;6.140;2023-02-01T12:11:51;11.37;;;4.80;;
21837;SDS011;11081;45.946;6.140;2023-02-01T12:14:36;11.50;;;4.97;;
21837;SDS011;11081;45.946;6.140;2023-02-01T12:17:35;8.50;;;5.20;;
21837;SDS011;11081;45.946;6.140;2023-02-01T12:20:24;10.83;;;5.20;;
21837;SDS011;11081;45.946;6.140;2023-02-01T12:23:06;8.33;;;5.00;;
21837;SDS011;11081;45.946;6.140;2023-02-01T12:26:01;8.20;;;5.30;;
21837;SDS011;11081;45.946;6.140;2023-02-01T12:28:43;9.47;;;4.37;;
21837;SDS011;11081;45.946;6.140;2023-02-01T12:31:39;7.00;;;4.50;;
21837;SDS011;11081;45.946;6.140;2023-02-01T12:34:29;11.30;;;4.93;;
21837;SDS011;11081;45.946;6.140;2023-02-01T12:37:08;8.53;;;4.80;;
21837;SDS011;11081;45.946;6.140;2023-02-01T12:39:51;15.37;;;5.27;;
21837;SDS011;11081;45.946;6.140;2023-02-01T12:42:39;13.07;;;5.33;;
21837;SDS011;11081;45.946;6.140;2023-02-01T12:45:26;9.93;;;5.07;;
21837;SDS011;11081;45.946;6.140;2023-02-01T12:48:37;7.67;;;4.33;;
21837;SDS011;11081;45.946;6.140;2023-02-01T12:51:36;7.97;;;4.57;;
21837;SDS011;11081;45.946;6.140;2023-02-01T12:54:09;8.00;;;4.70;;
21837;SDS011;11081;45.946;6.140;2023-02-01T12:56:41;12.23;;;4.90;;
21837;SDS011;11081;45.946;6.140;2023-02-01T12:59:16;11.03;;;5.13;;
21837;SDS011;11081;45.946;6.140;2023-02-01T13:01:53;10.80;;;5.23;;
21837;SDS011;11081;45.946;6.140;2023-02-01T13:04:28;10.77;;;5.40;;
21837;SDS011;11081;45.946;6.140;2023-02-01T13:07:03;9.40;;;5.23;;
21837;SDS011;11081;45.946;6.140;2023-02-01T13:09:38;10.93;;;5.23;;
21837;SDS011;11081;45.946;6.140;2023-02-01T13:12:12;15.13;;;6.60;;
21837;SDS011;11081;45.946;6.140;2023-02-01T13:14:44;13.03;;;6.00;;
21837;SDS011;11081;45.946;6.140;2023-02-01T13:17:18;10.13;;;5.40;;
21837;SDS011;11081;45.946;6.140;2023-02-01T13:19:52;13.30;;;5.80;;
21837;SDS011;11081;45.946;6.140;2023-02-01T13:22:25;8.40;;;5.13;;
21837;SDS011;11081;45.946;6.140;2023-02-01T13:24:57;6.50;;;4.37;;
21837;SDS011;11081;45.946;6.140;2023-02-01T13:27:29;8.77;;;4.90;;
21837;SDS011;11081;45.946;6.140;2023-02-01T13:29:59;8.90;;;4.87;;
21837;SDS011;11081;45.946;6.140;2023-02-01T13:32:52;8.30;;;4.87;;
21837;SDS011;11081;45.946;6.140;2023-02-01T13:36:08;11.93;;;5.37;;
21837;SDS011;11081;45.946;6.140;2023-02-01T13:39:03;9.00;;;4.97;;
21837;SDS011;11081;45.946;6.140;2023-02-01T13:41:52;9.70;;;4.40;;
21837;SDS011;11081;45.946;6.140;2023-02-01T13:44:25;7.73;;;4.50;;
21837;SDS011;11081;45.946;6.140;2023-02-01T13:46:58;9.53;;;5.20;;
21837;SDS011;11081;45.946;6.140;2023-02-01T13:49:30;9.30;;;4.17;;
21837;SDS011;11081;45.946;6.140;2023-02-01T13:52:06;8.83;;;4.90;;
21837;SDS011;11081;45.946;6.140;2023-02-01T13:55:02;8.93;;;5.20;;
21837;SDS011;11081;45.946;6.140;2023-02-01T13:57:43;6.57;;;4.47;;
21837;SDS011;11081;45.946;6.140;2023-02-01T14:00:25;8.63;;;4.67;;
21837;SDS011;11081;45.946;6.140;2023-02-01T14:03:02;7.83;;;4.00;;
21837;SDS011;11081;45.946;6.140;2023-02-01T14:08:45;5.27;;;3.80;;
21837;SDS011;11081;45.946;6.140;2023-02-01T14:11:40;5.83;;;3.83;;
21837;SDS011;11081;45.946;6.140;2023-02-01T14:23:27;1.63;;;1.30;;
21837;SDS011;11081;45.946;6.140;2023-02-01T14:26:06;1.80;;;1.30;;
21837;SDS011;11081;45.946;6.140;2023-02-01T14:28:41;2.87;;;1.40;;
21837;SDS011;11081;45.946;6.140;2023-02-01T14:31:26;2.63;;;1.43;;
21837;SDS011;11081;45.946;6.140;2023-02-01T14:34:04;2.27;;;1.57;;
21837;SDS011;11081;45.946;6.140;2023-02-01T14:36:43;1.30;;;1.10;;
21837;SDS011;11081;45.946;6.140;2023-02-01T14:39:24;4.90;;;1.30;;
21837;SDS011;11081;45.946;6.140;2023-02-01T14:41:58;3.15;;;1.20;;
21837;SDS011;11081;45.946;6.140;2023-02-01T14:44:34;2.23;;;1.47;;
21837;SDS011;11081;45.946;6.140;2023-02-01T14:47:05;1.27;;;0.80;;
21837;SDS011;11081;45.946;6.140;2023-02-01T14:50:07;1.10;;;0.83;;
21837;SDS011;11081;45.946;6.140;2023-02-01T14:52:41;0.93;;;0.73;;
21837;SDS011;11081;45.946;6.140;2023-02-01T14:55:13;1.30;;;1.10;;
21837;SDS011;11081;45.946;6.140;2023-02-01T14:57:48;1.77;;;1.00;;
21837;SDS011;11081;45.946;6.140;2023-02-01T15:00:21;1.57;;;1.10;;
21837;SDS011;11081;45.946;6.140;2023-02-01T15:02:52;3.13;;;1.03;;
21837;SDS011;11081;45.946;6.140;2023-02-01T15:05:26;2.70;;;1.07;;
21837;SDS011;11081;45.946;6.140;2023-02-01T15:08:11;2.03;;;0.80;;
21837;SDS011;11081;45.946;6.140;2023-02-01T15:10:45;3.83;;;1.00;;
21837;SDS011;11081;45.946;6.140;2023-02-01T15:13:20;1.77;;;1.00;;
21837;SDS011;11081;45.946;6.140;2023-02-01T15:16:02;2.77;;;1.13;;
21837;SDS011;11081;45.946;6.140;2023-02-01T15:18:32;1.90;;;1.30;;
21837;SDS011;11081;45.946;6.140;2023-02-01T15:21:01;3.60;;;0.93;;
21837;SDS011;11081;45.946;6.140;2023-02-01T15:23:50;3.85;;;1.55;;
21837;SDS011;11081;45.946;6.140;2023-02-01T15:26:37;1.70;;;1.30;;
21837;SDS011;11081;45.946;6.140;2023-02-01T15:29:08;2.22;;;1.42;;
21837;SDS011;11081;45.946;6.140;2023-02-01T15:31:39;2.60;;;1.33;;
21837;SDS011;11081;45.946;6.140;2023-02-01T15:34:09;3.03;;;1.50;;
21837;SDS011;11081;45.946;6.140;2023-02-01T15:36:37;5.03;;;1.37;;
21837;SDS011;11081;45.946;6.140;2023-02-01T15:39:14;2.13;;;1.30;;